Thunder radar more information blitzortung!


Radar de pluja more information rain snow radar


Visita la nostra xarxa de llocs de meteo:

Template documentation
and downloads

And another site



No particular awareness of the weather is required.    There are no Weather-warnings

Pagina Historial Weather Underground text

Diari Resum Abril 15, 2016 Unitats:  Mètric    Imperial   Tant
« Previous Dia
SegĂźent Dia »
Diari Setmana Mensual Anual Personalitzada
  Maxima: Minima: Media:
Temperatura: -17.8 °C -12.6 °C -7.8 °C
Punt de rosada: -17.8 °C -15.5 °C -13 °C
Humitat: Humidity % 39 % 56 %
Wind Speed: 0 km/h 0 km/h 12.4 km/h
RĂ fegues de vent: 0 km/h - -
Vent:- - SSW
Pression baro: 0 hPa 34164.7 hPa -
Precipitacions: 0 mm    
Historical Graphs
 
 
Dades de taula per Abril 15, 2016
Temps Temperatura Punt de rosada Pression baro Vent Wind Speed RĂ fegues de vent Humitat Rainfall Rate (Hourly)
-17.8 °C -17.8 °C 0 hPa Calm     Humidity % 0 mm
00:00 -11.5 °C -14.2 °C 34327.3 hPa West 2.6 km/h 5.1 km/h 72 % 0 mm
00:01 -9.9 °C -15.5 °C 34293.4 hPa West 8 km/h 8 km/h 51 % 0 mm
00:06 -9.9 °C -15.3 °C 34293.4 hPa West 9 km/h 9 km/h 52 % 0 mm
00:10 -11.7 °C -14.3 °C 34293.4 hPa NNE 2.6 km/h 2.6 km/h 72 % 0 mm
00:11 -9.9 °C -15.3 °C 34293.4 hPa NW 6.8 km/h 6.8 km/h 52 % 0 mm
00:20 -11.9 °C -14.8 °C 34293.4 hPa NE 2.6 km/h 5.1 km/h 70 % 0 mm
00:30 -12.2 °C -15.2 °C 34293.4 hPa ENE 2.6 km/h 7.7 km/h 69 % 0 mm
00:40 -12.4 °C -15.3 °C 34293.4 hPa Calm   5.1 km/h 70 % 0 mm
00:50 -12.4 °C -15.3 °C 34293.4 hPa NNW 2.6 km/h 5.1 km/h 70 % 0 mm
01:00 -12.3 °C -15.1 °C 34293.4 hPa Calm   2.6 km/h 71 % 0 mm
01:10 -12.3 °C -15 °C 34293.4 hPa Calm   2.6 km/h 72 % 0 mm
01:20 -12.3 °C -15.1 °C 34256.2 hPa Calm     71 % 0 mm
01:30 -12.5 °C -15.5 °C 34256.2 hPa NW 2.6 km/h 5.1 km/h 69 % 0 mm
01:40 -12.6 °C -15.4 °C 34293.4 hPa Calm   2.6 km/h 71 % 0 mm
01:50 -12.6 °C -15.4 °C 34256.2 hPa Calm     71 % 0 mm
02:00 -12.6 °C -15.3 °C 34256.2 hPa Calm     71 % 0 mm
02:10 -12.6 °C -15.2 °C 34293.4 hPa Calm   2.6 km/h 72 % 0 mm
02:20 -12.5 °C -15.2 °C 34293.4 hPa WSW 5.1 km/h 7.7 km/h 72 % 0 mm
02:30 -12.6 °C -14.8 °C 34293.4 hPa SW 5.1 km/h 7.7 km/h 76 % 0 mm
02:40 -12.6 °C -14.6 °C 34327.3 hPa SW 5.1 km/h 7.7 km/h 78 % 0 mm
02:50 -12.6 °C -14.5 °C 34327.3 hPa SW 2.6 km/h 5.1 km/h 79 % 0 mm
03:00 -12.6 °C -14.5 °C 34327.3 hPa SW 2.6 km/h 5.1 km/h 79 % 0 mm
03:10 -12.5 °C -14.4 °C 34327.3 hPa SW 2.6 km/h 5.1 km/h 79 % 0 mm
03:20 -12.3 °C -14.3 °C 34327.3 hPa SW 5.1 km/h 7.7 km/h 78 % 0 mm
03:30 -12.1 °C -14.5 °C 34327.3 hPa SW 2.6 km/h 7.7 km/h 75 % 0 mm
03:40 -12 °C -14.3 °C 34327.3 hPa SW 2.6 km/h 7.7 km/h 75 % 0 mm
03:50 -11.8 °C -13.9 °C 34327.3 hPa Calm   5.1 km/h 77 % 0 mm
04:00 -11.7 °C -13.8 °C 34327.3 hPa SSW 5.1 km/h 5.1 km/h 77 % 0 mm
04:10 -11.4 °C -13.5 °C 34327.3 hPa SW 7.7 km/h 10.3 km/h 78 % 0 mm
04:20 -11.4 °C -13.3 °C 34327.3 hPa SW 5.1 km/h 5.1 km/h 79 % 0 mm
04:30 -11.1 °C -13.1 °C 34327.3 hPa WSW 5.1 km/h 10.3 km/h 79 % 0 mm
04:40 -11.1 °C -12.9 °C 34327.3 hPa SW 7.7 km/h 12.9 km/h 80 % 0 mm
04:50 -10.9 °C -12.7 °C 34327.3 hPa SW 7.7 km/h 10.3 km/h 81 % 0 mm
05:00 -10.7 °C -12.6 °C 34327.3 hPa SW 12.9 km/h 12.9 km/h 80 % 0 mm
05:10 -10.1 °C -12.3 °C 34327.3 hPa SW 2.6 km/h 5.1 km/h 77 % 0 mm
05:20 -10.1 °C -12.4 °C 34327.3 hPa East 2.6 km/h 2.6 km/h 76 % 0 mm
05:40 -9.2 °C -12 °C 34327.3 hPa SE 5.1 km/h 10.3 km/h 72 % 0 mm
05:50 -8.9 °C -12.1 °C 34327.3 hPa SSE 5.1 km/h 10.3 km/h 69 % 0 mm
06:00 -8.4 °C -11.7 °C 34327.3 hPa SSE 5.1 km/h 10.3 km/h 68 % 0 mm
06:05 -8.1 °C -11.6 °C 34327.3 hPa South 2.6 km/h 5.1 km/h 66 % 0 mm
11:06 -8.1 °C -11.6 °C 34327.3 hPa SSW 6 km/h 6 km/h 66 % 0 mm
11:11 -7.7 °C -11.4 °C 34327.3 hPa ENE 3.1 km/h 3.1 km/h 65 % 0 mm
11:16 -7.5 °C -11.5 °C 34327.3 hPa ENE 3.1 km/h 3.1 km/h 63 % 0 mm
11:21 -7.6 °C -11.6 °C 34327.3 hPa NW 6 km/h 6 km/h 63 % 0 mm
11:26 -7.3 °C -11.6 °C 34327.3 hPa NW 4.2 km/h 5.1 km/h 61 % 0 mm
11:31 -7.3 °C -11.6 °C 34327.3 hPa NW 4.2 km/h 5.1 km/h 61 % 0 mm
11:36 -7.2 °C -11.6 °C 34327.3 hPa WNW 3.7 km/h 3.7 km/h 60 % 0 mm
11:41 -7.1 °C -11.6 °C 34327.3 hPa WNW 3.7 km/h 3.7 km/h 59 % 0 mm
11:46 -6.6 °C -11.5 °C 34327.3 hPa WNW 3.7 km/h 3.7 km/h 57 % 0 mm
11:51 -6.6 °C -11.6 °C 34327.3 hPa NE 4.2 km/h 4.2 km/h 56 % 0 mm
11:56 -6.6 °C -11.7 °C 34327.3 hPa ENE 6 km/h 6 km/h 55 % 0 mm
12:01 -6.4 °C -11.7 °C 34327.3 hPa ESE 9 km/h 9 km/h 54 % 0 mm
12:06 -6.4 °C -11.7 °C 34327.3 hPa WSW 9 km/h 9 km/h 54 % 0 mm
12:11 -6.3 °C -11.8 °C 34327.3 hPa ESE 9 km/h 9 km/h 53 % 0 mm
12:16 -6.1 °C -11.9 °C 34327.3 hPa South 9 km/h 9 km/h 51 % 0 mm
12:21 -6.1 °C -11.8 °C 34327.3 hPa ENE 17.9 km/h 17.9 km/h 52 % 0 mm
12:26 -6.1 °C -11.8 °C 34327.3 hPa ESE 11.9 km/h 11.9 km/h 52 % 0 mm
12:31 -6.1 °C -11.9 °C 34327.3 hPa East 15 km/h 15 km/h 51 % 0 mm
12:36 -6 °C -11.8 °C 34327.3 hPa East 15 km/h 15 km/h 51 % 0 mm
12:41 -5.9 °C -11.8 °C 34327.3 hPa SSW 15 km/h 15 km/h 51 % 0 mm
12:46 -5.5 °C -11.4 °C 34293.4 hPa WSW 9 km/h 9 km/h 51 % 0 mm
12:51 -5.1 °C -11.2 °C 34293.4 hPa WSW 6 km/h 6 km/h 50 % 0 mm
12:56 -4.9 °C -11.4 °C 34293.4 hPa West 6 km/h 6.8 km/h 48 % 0 mm
13:01 -4.7 °C -11.3 °C 34293.4 hPa ESE 8 km/h 8.5 km/h 47 % 0 mm
13:06 -4.6 °C -11.3 °C 34293.4 hPa SSW 6.3 km/h 6.3 km/h 47 % 0 mm
13:11 -4.4 °C -10.8 °C 34293.4 hPa WSW 15 km/h 15 km/h 49 % 0 mm
13:16 -4.6 °C -10.9 °C 34256.2 hPa SSW 11.9 km/h 11.9 km/h 49 % 0 mm
13:21 -4.9 °C -11.3 °C 34256.2 hPa West 17.9 km/h 17.9 km/h 48 % 0 mm
13:26 -5.1 °C -11.4 °C 34256.2 hPa WSW 19.6 km/h 19.6 km/h 49 % 0 mm
13:31 -5 °C -11.4 °C 34222.3 hPa WSW 17.9 km/h 17.9 km/h 48 % 0 mm
13:36 -5.1 °C -11.4 °C 34222.3 hPa SSW 23.8 km/h 23.8 km/h 49 % 0 mm
13:41 -5.1 °C -11.4 °C 34222.3 hPa SW 15 km/h 15 km/h 49 % 0 mm
13:46 -5 °C -11.4 °C 34256.2 hPa SW 20.9 km/h 20.9 km/h 48 % 0 mm
13:51 -5.1 °C -11.6 °C 34256.2 hPa WSW 16.1 km/h 16.1 km/h 48 % 0 mm
13:56 -5.2 °C -11.6 °C 34256.2 hPa SW 20.9 km/h 20.9 km/h 48 % 0 mm
14:01 -5 °C -11.6 °C 34256.2 hPa SW 15 km/h 15.3 km/h 47 % 0 mm
14:06 -5.1 °C -11.5 °C 34256.2 hPa SSW 20.9 km/h 20.9 km/h 48 % 0 mm
14:11 -4.9 °C -11.5 °C 34256.2 hPa SSW 20.9 km/h 20.9 km/h 47 % 0 mm
14:16 -5.1 °C -11.7 °C 34256.2 hPa SSW 26.9 km/h 26.9 km/h 47 % 0 mm
14:21 -5.1 °C -11.7 °C 34256.2 hPa SW 26.9 km/h 26.9 km/h 47 % 0 mm
14:26 -5.1 °C -11.7 °C 34256.2 hPa SW 23.8 km/h 23.8 km/h 47 % 0 mm
14:31 -5 °C -11.8 °C 34256.2 hPa SW 15 km/h 15 km/h 46 % 0 mm
14:36 -4.9 °C -11.9 °C 34256.2 hPa WSW 20.9 km/h 20.9 km/h 45 % 0 mm
14:41 -4.7 °C -11.7 °C 34256.2 hPa WSW 19.2 km/h 19.2 km/h 45 % 0 mm
14:46 -4.7 °C -11.9 °C 34256.2 hPa SW 22 km/h 22 km/h 44 % 0 mm
14:51 -4.8 °C -12.2 °C 34256.2 hPa WSW 29.8 km/h 29.8 km/h 43 % 0 mm
14:56 -4.8 °C -12.2 °C 34256.2 hPa SSW 25.4 km/h 25.4 km/h 43 % 0 mm
15:01 -4.7 °C -12.3 °C 34222.3 hPa SSW 26.9 km/h 26.9 km/h 42 % 0 mm
15:06 -4.7 °C -12.3 °C 34222.3 hPa SW 20.9 km/h 20.9 km/h 42 % 0 mm
15:11 -4.5 °C -12.1 °C 34222.3 hPa WSW 20.9 km/h 20.9 km/h 42 % 0 mm
15:16 -4.6 °C -12.2 °C 34222.3 hPa SW 33.2 km/h 33.2 km/h 42 % 0 mm
15:21 -4.6 °C -12.2 °C 34222.3 hPa SW 20.9 km/h 20.9 km/h 42 % 0 mm
15:26 -4.6 °C -12.2 °C 34222.3 hPa WSW 17.9 km/h 17.9 km/h 42 % 0 mm
15:31 -4.5 °C -12.1 °C 34198.6 hPa West 16.1 km/h 16.1 km/h 42 % 0 mm
15:36 -4.6 °C -12.2 °C 34198.6 hPa SW 23.8 km/h 23.8 km/h 42 % 0 mm
15:41 -4.6 °C -12.2 °C 34198.6 hPa SW 20.9 km/h 20.9 km/h 42 % 0 mm
15:46 -4.3 °C -12.1 °C 34198.6 hPa WSW 25.4 km/h 25.4 km/h 41 % 0 mm
15:51 -4.3 °C -12.2 °C 34198.6 hPa SW 26.9 km/h 26.9 km/h 41 % 0 mm
15:56 -4.2 °C -12 °C 34198.6 hPa WSW 23.8 km/h 23.8 km/h 41 % 0 mm
16:01 -4.2 °C -12.1 °C 34198.6 hPa SW 31.9 km/h 31.9 km/h 41 % 0 mm
16:06 -4.4 °C -12.4 °C 34198.6 hPa SSW 23.8 km/h 23.8 km/h 40 % 0 mm
16:11 -4.4 °C -12.4 °C 34198.6 hPa SW 20.9 km/h 20.9 km/h 40 % 0 mm
16:16 -4.7 °C -12.7 °C 34198.6 hPa SSW 29.8 km/h 29.8 km/h 40 % 0 mm
16:21 -4.8 °C -12.8 °C 34198.6 hPa SW 26.9 km/h 26.9 km/h 40 % 0 mm
16:26 -4.7 °C -12.7 °C 34198.6 hPa SW 25.1 km/h 25.1 km/h 40 % 0 mm
16:31 -4.9 °C -13.1 °C 34198.6 hPa WSW 26.9 km/h 26.9 km/h 39 % 0 mm
16:36 -4.8 °C -12.8 °C 34198.6 hPa SW 26.4 km/h 26.4 km/h 40 % 0 mm
16:41 -5 °C -12.9 °C 34198.6 hPa SW 26.9 km/h 26.9 km/h 40 % 0 mm
16:46 -5 °C -12.9 °C 34198.6 hPa WSW 20.9 km/h 20.9 km/h 40 % 0 mm
16:51 -4.9 °C -12.7 °C 34198.6 hPa SW 17.9 km/h 17.9 km/h 41 % 0 mm
16:56 -5.2 °C -12.9 °C 34198.6 hPa SW 26.9 km/h 26.9 km/h 41 % 0 mm
17:01 -5.3 °C -12.8 °C 34198.6 hPa SW 26.9 km/h 26.9 km/h 42 % 0 mm
17:06 -5.2 °C -12.7 °C 34198.6 hPa SSW 19.6 km/h 19.6 km/h 42 % 0 mm
17:11 -5.2 °C -12.7 °C 34198.6 hPa WSW 26.9 km/h 26.9 km/h 42 % 0 mm
17:16 -5.3 °C -12.8 °C 34198.6 hPa SSW 23.8 km/h 23.8 km/h 42 % 0 mm
17:21 -5.3 °C -12.7 °C 34198.6 hPa SSW 33.6 km/h 33.6 km/h 43 % 0 mm
17:31 -5.6 °C -12.7 °C 34198.6 hPa SSW 23.8 km/h 23.8 km/h 44 % 0 mm
17:36 -5.8 °C -13.1 °C 34198.6 hPa SSW 23.8 km/h 23.8 km/h 43 % 0 mm
17:41 -5.6 °C -12.9 °C 34198.6 hPa WSW 15.3 km/h 15.3 km/h 43 % 0 mm
17:46 -5.6 °C -12.9 °C 34198.6 hPa SW 17.9 km/h 17.9 km/h 43 % 0 mm
17:51 -5.9 °C -13.2 °C 34198.6 hPa SSW 17.9 km/h 17.9 km/h 43 % 0 mm
17:56 -6.2 °C -13.3 °C 34198.6 hPa WSW 15 km/h 15.3 km/h 44 % 0 mm
18:02 -6.3 °C -13.2 °C 34198.6 hPa SE 11.9 km/h 11.9 km/h 45 % 0 mm
18:12 -6.4 °C -13.2 °C 34198.6 hPa West 17.9 km/h 17.9 km/h 45 % 0 mm
18:17 -6.4 °C -13.3 °C 34198.6 hPa WSW 15 km/h 15 km/h 45 % 0 mm
18:22 -6.4 °C -13.3 °C 34198.6 hPa SW 11.9 km/h 11.9 km/h 45 % 0 mm
18:27 -6.4 °C -13.2 °C 34198.6 hPa SSW 11.9 km/h 11.9 km/h 45 % 0 mm
18:32 -6.3 °C -13.2 °C 34198.6 hPa SE 12.7 km/h 12.7 km/h 45 % 0 mm
18:37 -6.2 °C -13.1 °C 34198.6 hPa WSW 16.1 km/h 16.1 km/h 45 % 0 mm
18:42 -6.4 °C -13.2 °C 34198.6 hPa SSW 23.8 km/h 23.8 km/h 45 % 0 mm
18:47 -6.4 °C -13.2 °C 34198.6 hPa SW 17.9 km/h 17.9 km/h 45 % 0 mm
18:52 -6.4 °C -13.2 °C 34198.6 hPa SW 17.9 km/h 17.9 km/h 45 % 0 mm
18:57 -6.4 °C -13.5 °C 34198.6 hPa West 23.8 km/h 23.8 km/h 44 % 0 mm
19:02 -6.4 °C -13.5 °C 34164.7 hPa SSW 15 km/h 15 km/h 44 % 0 mm
19:07 -6.6 °C -13.7 °C 34164.7 hPa SSW 29.8 km/h 29.8 km/h 44 % 0 mm
19:12 -6.8 °C -13.8 °C 34164.7 hPa SW 29.8 km/h 29.8 km/h 44 % 0 mm
19:17 -6.9 °C -13.9 °C 34198.6 hPa WSW 20.9 km/h 20.9 km/h 44 % 0 mm
19:22 -7.1 °C -13.8 °C 34198.6 hPa SW 23.8 km/h 23.8 km/h 45 % 0 mm
19:27 -7.1 °C -13.9 °C 34198.6 hPa SSW 11.9 km/h 11.9 km/h 45 % 0 mm
19:32 -7.2 °C -14 °C 34198.6 hPa SSW 15 km/h 15 km/h 45 % 0 mm
19:37 -7.3 °C -13.9 °C 34198.6 hPa SSW 20.9 km/h 20.9 km/h 46 % 0 mm
19:42 -7.4 °C -14.1 °C 34198.6 hPa SW 19.2 km/h 19.2 km/h 46 % 0 mm
19:47 -7.6 °C -13.9 °C 34198.6 hPa WSW 20.9 km/h 20.9 km/h 47 % 0 mm
19:52 -7.7 °C -14.1 °C 34198.6 hPa SSW 11.1 km/h 11.1 km/h 47 % 0 mm
19:57 -7.8 °C -14 °C 34198.6 hPa SW 15 km/h 15 km/h 48 % 0 mm
20:02 -7.8 °C -13.9 °C 34198.6 hPa SSW 14.5 km/h 14.5 km/h 49 % 0 mm
20:07 -7.9 °C -13.8 °C 34198.6 hPa SSW 15 km/h 16.1 km/h 50 % 0 mm
20:12 -8.1 °C -13.9 °C 34198.6 hPa SSW 11.9 km/h 11.9 km/h 50 % 0 mm
20:17 -8.2 °C -13.7 °C 34198.6 hPa SW 20.9 km/h 20.9 km/h 52 % 0 mm
20:22 -8.4 °C -13.4 °C 34198.6 hPa SW 14.5 km/h 14.5 km/h 55 % 0 mm
20:27 -8.5 °C -13.1 °C 34198.6 hPa SSW 15 km/h 15 km/h 58 % 0 mm
20:32 -8.6 °C -13.1 °C 34198.6 hPa SW 15 km/h 15 km/h 59 % 0 mm
20:37 -8.7 °C -13.1 °C 34198.6 hPa SW 15 km/h 15 km/h 60 % 0 mm
20:42 -8.8 °C -13.1 °C 34198.6 hPa SSW 15 km/h 15 km/h 60 % 0 mm
20:47 -8.9 °C -13.1 °C 34164.7 hPa WSW 10.3 km/h 10.3 km/h 61 % 0 mm
20:52 -9 °C -13 °C 34164.7 hPa WSW 15 km/h 15 km/h 62 % 0 mm
20:57 -9.1 °C -12.9 °C 34164.7 hPa West 15 km/h 15 km/h 63 % 0 mm
21:02 -9.1 °C -13 °C 34164.7 hPa WSW 15 km/h 15 km/h 63 % 0 mm
21:07 -9.2 °C -13.1 °C 34164.7 hPa SW 9 km/h 9 km/h 63 % 0 mm
21:12 -9.2 °C -13.1 °C 34164.7 hPa SSW 9 km/h 9 km/h 63 % 0 mm
21:22 -9.3 °C -13.2 °C 34164.7 hPa SW 9 km/h 9 km/h 63 % 0 mm
21:32 -9.4 °C -13.3 °C 34198.6 hPa SW 6 km/h 6 km/h 63 % 0 mm
21:37 -9.4 °C -13.2 °C 34198.6 hPa SW 3.1 km/h 3.7 km/h 64 % 0 mm
21:42 -9.5 °C -13.2 °C 34198.6 hPa WSW 6 km/h 6 km/h 64 % 0 mm
21:47 -9.6 °C -13.3 °C 34164.7 hPa WSW 3.1 km/h 3.1 km/h 64 % 0 mm
21:52 -9.7 °C -13.4 °C 34164.7 hPa WSW 3.1 km/h 3.1 km/h 64 % 0 mm
21:57 -9.7 °C -13.3 °C 34164.7 hPa WSW 3.1 km/h   65 % 0 mm
22:02 -9.7 °C -13.2 °C 34198.6 hPa Calm     66 % 0 mm
22:07 -9.7 °C -13.2 °C 34198.6 hPa Calm     66 % 0 mm
22:12 -9.8 °C -13.3 °C 34198.6 hPa Calm     66 % 0 mm
22:17 -9.8 °C -13.3 °C 34198.6 hPa Calm     66 % 0 mm
22:22 -9.8 °C -13.4 °C 34198.6 hPa West 4.2 km/h 4.2 km/h 65 % 0 mm
22:27 -9.9 °C -13.4 °C 34198.6 hPa West 3.7 km/h   66 % 0 mm
22:37 -10 °C -13.5 °C 34198.6 hPa West 3.1 km/h 3.1 km/h 66 % 0 mm
22:42 -10 °C -13.4 °C 34198.6 hPa Calm     67 % 0 mm
22:52 -10 °C -13.4 °C 34198.6 hPa SW 3.7 km/h   67 % 0 mm
22:57 -10 °C -13.2 °C 34198.6 hPa Calm     68 % 0 mm
23:02 -10.1 °C -13.3 °C 34198.6 hPa Calm     68 % 0 mm
23:07 -10.1 °C -13.2 °C 34198.6 hPa Calm     69 % 0 mm
23:12 -10.1 °C -13.2 °C 34198.6 hPa NE 6 km/h 6 km/h 69 % 0 mm
23:22 -10.1 °C -13.2 °C 34198.6 hPa NE 3.1 km/h 3.1 km/h 69 % 0 mm
23:27 -10.1 °C -13.2 °C 34198.6 hPa NE 3.1 km/h 3.1 km/h 69 % 0 mm
23:32 -10.1 °C -13.2 °C 34198.6 hPa Calm     69 % 0 mm
23:37 -10.1 °C -13.2 °C 34198.6 hPa NE 3.1 km/h   69 % 0 mm
23:42 -10.1 °C -13.2 °C 34198.6 hPa NE 6 km/h 6 km/h 69 % 0 mm
23:47 -10.1 °C -13.3 °C 34198.6 hPa West 6 km/h 6 km/h 68 % 0 mm
23:57 -10.2 °C -13.2 °C 34198.6 hPa WSW 6.8 km/h 6.8 km/h 70 % 0 mm
Meteo Sesrovires
Elogis d' Weather Underground - 2 mb

Guio original per  Jim McMurry - jmcmurry@mwt.net Adaptat per a la plantilla per  Wim van der Kuil - Leuven-Template.eu

Trobareu la nostra informacio del temps tambe a:

Weather Underground

AWEKAS